sensor_id;sensor_type;location;lat;lon;timestamp;pressure;altitude;pressure_sealevel;temperature
62611;BMP280;48683;48.084;17.272;2022-07-29T00:02:17;100240.34;;;21.38
62611;BMP280;48683;48.084;17.272;2022-07-29T00:04:43;100250.97;;;21.36
62611;BMP280;48683;48.084;17.272;2022-07-29T00:07:08;100249.63;;;21.31
62611;BMP280;48683;48.084;17.272;2022-07-29T00:09:33;100260.09;;;21.14
62611;BMP280;48683;48.084;17.272;2022-07-29T00:12:00;100260.41;;;21.16
62611;BMP280;48683;48.084;17.272;2022-07-29T00:14:26;100259.03;;;21.12
62611;BMP280;48683;48.084;17.272;2022-07-29T00:16:52;100242.03;;;20.99
62611;BMP280;48683;48.084;17.272;2022-07-29T00:19:17;100259.00;;;20.94
62611;BMP280;48683;48.084;17.272;2022-07-29T00:21:43;100251.84;;;20.78
62611;BMP280;48683;48.084;17.272;2022-07-29T00:24:08;100245.94;;;20.61
62611;BMP280;48683;48.084;17.272;2022-07-29T00:26:33;100255.16;;;20.55
62611;BMP280;48683;48.084;17.272;2022-07-29T00:28:59;100257.41;;;20.47
62611;BMP280;48683;48.084;17.272;2022-07-29T00:31:25;100248.00;;;20.30
62611;BMP280;48683;48.084;17.272;2022-07-29T00:33:51;100247.09;;;20.33
62611;BMP280;48683;48.084;17.272;2022-07-29T00:36:16;100251.41;;;20.21
62611;BMP280;48683;48.084;17.272;2022-07-29T00:38:41;100249.44;;;20.22
62611;BMP280;48683;48.084;17.272;2022-07-29T00:41:10;100253.06;;;20.19
62611;BMP280;48683;48.084;17.272;2022-07-29T00:43:35;100258.38;;;20.22
62611;BMP280;48683;48.084;17.272;2022-07-29T00:46:01;100256.78;;;20.34
62611;BMP280;48683;48.084;17.272;2022-07-29T00:48:26;100263.56;;;20.29
62611;BMP280;48683;48.084;17.272;2022-07-29T00:50:52;100254.09;;;20.12
62611;BMP280;48683;48.084;17.272;2022-07-29T00:53:19;100263.44;;;20.33
62611;BMP280;48683;48.084;17.272;2022-07-29T00:55:45;100261.50;;;20.43
62611;BMP280;48683;48.084;17.272;2022-07-29T00:58:12;100265.16;;;20.49
62611;BMP280;48683;48.084;17.272;2022-07-29T01:00:38;100261.00;;;20.35
62611;BMP280;48683;48.084;17.272;2022-07-29T01:03:06;100270.28;;;20.47
62611;BMP280;48683;48.084;17.272;2022-07-29T01:05:32;100270.59;;;20.49
62611;BMP280;48683;48.084;17.272;2022-07-29T01:07:58;100257.56;;;20.44
62611;BMP280;48683;48.084;17.272;2022-07-29T01:10:24;100257.56;;;20.44
62611;BMP280;48683;48.084;17.272;2022-07-29T01:12:51;100257.56;;;20.44
62611;BMP280;48683;48.084;17.272;2022-07-29T01:15:17;100261.69;;;20.57
62611;BMP280;48683;48.084;17.272;2022-07-29T01:23:51;100256.81;;;20.52
62611;BMP280;48683;48.084;17.272;2022-07-29T01:26:42;100254.09;;;20.52
62611;BMP280;48683;48.084;17.272;2022-07-29T01:29:20;100255.47;;;20.57
62611;BMP280;48683;48.084;17.272;2022-07-29T01:34:35;100248.19;;;20.54
62611;BMP280;48683;48.084;17.272;2022-07-29T01:37:18;100254.09;;;20.52
62611;BMP280;48683;48.084;17.272;2022-07-29T01:39:47;100252.88;;;20.53
62611;BMP280;48683;48.084;17.272;2022-07-29T01:42:32;100249.84;;;20.42
62611;BMP280;48683;48.084;17.272;2022-07-29T01:47:38;100242.25;;;20.37
62611;BMP280;48683;48.084;17.272;2022-07-29T01:50:08;100249.53;;;20.40
62611;BMP280;48683;48.084;17.272;2022-07-29T01:52:46;100247.56;;;20.41
62611;BMP280;48683;48.084;17.272;2022-07-29T01:55:16;100249.38;;;20.44
62611;BMP280;48683;48.084;17.272;2022-07-29T01:57:46;100251.53;;;20.49
62611;BMP280;48683;48.084;17.272;2022-07-29T02:00:12;100242.00;;;20.53
62611;BMP280;48683;48.084;17.272;2022-07-29T02:02:40;100244.38;;;20.51
62611;BMP280;48683;48.084;17.272;2022-07-29T02:05:10;100237.13;;;20.48
62611;BMP280;48683;48.084;17.272;2022-07-29T02:07:36;100226.81;;;20.34
62611;BMP280;48683;48.084;17.272;2022-07-29T02:10:04;100230.16;;;20.38
62611;BMP280;48683;48.084;17.272;2022-07-29T02:12:32;100234.84;;;20.47
62611;BMP280;48683;48.084;17.272;2022-07-29T02:15:01;100239.53;;;20.37
62611;BMP280;48683;48.084;17.272;2022-07-29T02:17:41;100241.94;;;20.35
62611;BMP280;48683;48.084;17.272;2022-07-29T02:20:08;100235.97;;;20.18
62611;BMP280;48683;48.084;17.272;2022-07-29T02:22:35;100235.97;;;20.18
62611;BMP280;48683;48.084;17.272;2022-07-29T02:25:00;100254.50;;;20.02
62611;BMP280;48683;48.084;17.272;2022-07-29T02:27:28;100251.22;;;20.07
62611;BMP280;48683;48.084;17.272;2022-07-29T02:29:55;100234.25;;;20.03
62611;BMP280;48683;48.084;17.272;2022-07-29T02:32:24;100236.03;;;19.97
62611;BMP280;48683;48.084;17.272;2022-07-29T02:34:52;100247.38;;;19.95
62611;BMP280;48683;48.084;17.272;2022-07-29T02:37:19;100244.09;;;20.09
62611;BMP280;48683;48.084;17.272;2022-07-29T02:39:46;100247.91;;;20.21
62611;BMP280;48683;48.084;17.272;2022-07-29T02:42:15;100239.59;;;20.24
62611;BMP280;48683;48.084;17.272;2022-07-29T02:44:42;100244.28;;;20.24
62611;BMP280;48683;48.084;17.272;2022-07-29T02:50:16;100236.09;;;20.15
62611;BMP280;48683;48.084;17.272;2022-07-29T02:53:09;100238.50;;;20.13
62611;BMP280;48683;48.084;17.272;2022-07-29T02:55:41;100236.63;;;20.01
62611;BMP280;48683;48.084;17.272;2022-07-29T03:00:53;100241.78;;;19.99
62611;BMP280;48683;48.084;17.272;2022-07-29T03:03:20;100237.78;;;19.81
62611;BMP280;48683;48.084;17.272;2022-07-29T03:05:46;100243.56;;;19.92
62611;BMP280;48683;48.084;17.272;2022-07-29T03:08:12;100241.94;;;20.04
62611;BMP280;48683;48.084;17.272;2022-07-29T03:10:43;100254.56;;;20.11
62611;BMP280;48683;48.084;17.272;2022-07-29T03:13:11;100238.94;;;20.02
62611;BMP280;48683;48.084;17.272;2022-07-29T03:15:37;100253.75;;;20.01
62611;BMP280;48683;48.084;17.272;2022-07-29T03:18:03;100260.31;;;20.13
62611;BMP280;48683;48.084;17.272;2022-07-29T03:20:29;100245.16;;;20.12
62611;BMP280;48683;48.084;17.272;2022-07-29T03:22:54;100254.56;;;20.11
62611;BMP280;48683;48.084;17.272;2022-07-29T03:25:20;100253.31;;;20.03
62611;BMP280;48683;48.084;17.272;2022-07-29T03:27:46;100243.28;;;19.90
62611;BMP280;48683;48.084;17.272;2022-07-29T03:30:12;100241.41;;;19.78
62611;BMP280;48683;48.084;17.272;2022-07-29T03:32:38;100244.13;;;19.78
62611;BMP280;48683;48.084;17.272;2022-07-29T03:35:04;100255.31;;;19.80
62611;BMP280;48683;48.084;17.272;2022-07-29T03:37:30;100253.84;;;19.88
62611;BMP280;48683;48.084;17.272;2022-07-29T03:39:57;100254.88;;;19.82
62611;BMP280;48683;48.084;17.272;2022-07-29T03:42:29;100257.94;;;19.93
62611;BMP280;48683;48.084;17.272;2022-07-29T03:44:56;100254.31;;;19.96
62611;BMP280;48683;48.084;17.272;2022-07-29T03:47:25;100259.53;;;20.03
62611;BMP280;48683;48.084;17.272;2022-07-29T03:49:54;100250.06;;;19.86
62611;BMP280;48683;48.084;17.272;2022-07-29T03:52:22;100261.97;;;19.79
62611;BMP280;48683;48.084;17.272;2022-07-29T03:54:47;100262.16;;;19.85
62611;BMP280;48683;48.084;17.272;2022-07-29T03:57:14;100261.97;;;19.79
62611;BMP280;48683;48.084;17.272;2022-07-29T03:59:41;100274.28;;;19.84
62611;BMP280;48683;48.084;17.272;2022-07-29T04:02:09;100273.59;;;20.02
62611;BMP280;48683;48.084;17.272;2022-07-29T04:04:36;100271.97;;;20.13
62611;BMP280;48683;48.084;17.272;2022-07-29T04:07:02;100265.28;;;20.05
62611;BMP280;48683;48.084;17.272;2022-07-29T04:09:28;100273.00;;;20.07
62611;BMP280;48683;48.084;17.272;2022-07-29T04:11:53;100276.34;;;20.11
62611;BMP280;48683;48.084;17.272;2022-07-29T04:14:19;100280.16;;;20.13
62611;BMP280;48683;48.084;17.272;2022-07-29T04:16:45;100266.09;;;20.24
62611;BMP280;48683;48.084;17.272;2022-07-29T04:19:11;100278.44;;;20.38
62611;BMP280;48683;48.084;17.272;2022-07-29T04:21:39;100277.84;;;20.33
62611;BMP280;48683;48.084;17.272;2022-07-29T04:24:06;100270.56;;;20.40
62611;BMP280;48683;48.084;17.272;2022-07-29T04:26:32;100274.22;;;20.46
62611;BMP280;48683;48.084;17.272;2022-07-29T04:28:57;100268.16;;;20.42
62611;BMP280;48683;48.084;17.272;2022-07-29T04:31:22;100268.94;;;20.51
62611;BMP280;48683;48.084;17.272;2022-07-29T04:33:48;100274.41;;;20.60
62611;BMP280;48683;48.084;17.272;2022-07-29T04:36:13;100276.81;;;20.58
62611;BMP280;48683;48.084;17.272;2022-07-29T04:38:38;100269.72;;;20.61
62611;BMP280;48683;48.084;17.272;2022-07-29T04:41:04;100268.38;;;20.65
62611;BMP280;48683;48.084;17.272;2022-07-29T04:43:29;100274.88;;;20.68
62611;BMP280;48683;48.084;17.272;2022-07-29T04:45:55;100273.22;;;20.79
62611;BMP280;48683;48.084;17.272;2022-07-29T04:48:20;100273.53;;;20.91
62611;BMP280;48683;48.084;17.272;2022-07-29T04:50:46;100269.75;;;20.97
62611;BMP280;48683;48.084;17.272;2022-07-29T04:53:11;100268.22;;;21.05
62611;BMP280;48683;48.084;17.272;2022-07-29T04:55:37;100280.25;;;21.17
62611;BMP280;48683;48.084;17.272;2022-07-29T04:58:02;100277.53;;;21.35
62611;BMP280;48683;48.084;17.272;2022-07-29T05:00:28;100274.75;;;21.44
62611;BMP280;48683;48.084;17.272;2022-07-29T05:02:53;100284.91;;;21.62
62611;BMP280;48683;48.084;17.272;2022-07-29T05:05:18;100273.50;;;21.63
62611;BMP280;48683;48.084;17.272;2022-07-29T05:07:44;100270.75;;;21.72
62611;BMP280;48683;48.084;17.272;2022-07-29T05:10:09;100264.22;;;21.79
62611;BMP280;48683;48.084;17.272;2022-07-29T05:12:35;100273.44;;;22.00
62611;BMP280;48683;48.084;17.272;2022-07-29T05:15:00;100274.94;;;22.10
62611;BMP280;48683;48.084;17.272;2022-07-29T05:17:25;100279.84;;;22.30
62611;BMP280;48683;48.084;17.272;2022-07-29T05:19:51;100278.09;;;22.41
62611;BMP280;48683;48.084;17.272;2022-07-29T05:22:18;100276.25;;;22.47
62611;BMP280;48683;48.084;17.272;2022-07-29T05:24:44;100275.75;;;22.58
62611;BMP280;48683;48.084;17.272;2022-07-29T05:27:09;100283.56;;;22.74
62611;BMP280;48683;48.084;17.272;2022-07-29T05:29:35;100274.38;;;22.86
62611;BMP280;48683;48.084;17.272;2022-07-29T05:32:01;100281.84;;;23.00
62611;BMP280;48683;48.084;17.272;2022-07-29T05:34:26;100272.59;;;22.98
62611;BMP280;48683;48.084;17.272;2022-07-29T05:36:52;100277.16;;;23.15
62611;BMP280;48683;48.084;17.272;2022-07-29T05:39:17;100274.94;;;23.29
62611;BMP280;48683;48.084;17.272;2022-07-29T05:41:42;100270.22;;;23.29
62611;BMP280;48683;48.084;17.272;2022-07-29T05:44:08;100280.59;;;23.25
62611;BMP280;48683;48.084;17.272;2022-07-29T05:46:33;100286.03;;;23.49
62611;BMP280;48683;48.084;17.272;2022-07-29T05:48:59;100267.22;;;23.42
62611;BMP280;48683;48.084;17.272;2022-07-29T05:51:24;100278.19;;;23.56
62611;BMP280;48683;48.084;17.272;2022-07-29T05:53:49;100282.34;;;23.81
62611;BMP280;48683;48.084;17.272;2022-07-29T05:56:15;100281.41;;;23.84
62611;BMP280;48683;48.084;17.272;2022-07-29T05:58:40;100275.94;;;23.84
62611;BMP280;48683;48.084;17.272;2022-07-29T06:01:06;100271.75;;;23.89
62611;BMP280;48683;48.084;17.272;2022-07-29T06:03:31;100273.16;;;23.99
62611;BMP280;48683;48.084;17.272;2022-07-29T06:05:56;100273.81;;;23.94
62611;BMP280;48683;48.084;17.272;2022-07-29T06:08:36;100264.47;;;24.15
62611;BMP280;48683;48.084;17.272;2022-07-29T06:11:03;100266.75;;;24.37
62611;BMP280;48683;48.084;17.272;2022-07-29T06:13:28;100261.34;;;24.42
62611;BMP280;48683;48.084;17.272;2022-07-29T06:15:54;100252.84;;;24.40
62611;BMP280;48683;48.084;17.272;2022-07-29T06:18:19;100258.22;;;24.70
62611;BMP280;48683;48.084;17.272;2022-07-29T06:20:46;100258.78;;;24.94
62611;BMP280;48683;48.084;17.272;2022-07-29T06:23:11;100264.59;;;24.81
62611;BMP280;48683;48.084;17.272;2022-07-29T06:25:37;100262.34;;;25.00
62611;BMP280;48683;48.084;17.272;2022-07-29T06:28:02;100264.41;;;25.05
62611;BMP280;48683;48.084;17.272;2022-07-29T06:30:28;100263.81;;;25.21
62611;BMP280;48683;48.084;17.272;2022-07-29T06:32:54;100265.81;;;25.46
62611;BMP280;48683;48.084;17.272;2022-07-29T06:35:20;100258.38;;;25.52
62611;BMP280;48683;48.084;17.272;2022-07-29T06:37:45;100257.22;;;25.59
62611;BMP280;48683;48.084;17.272;2022-07-29T06:40:11;100256.75;;;25.66
62611;BMP280;48683;48.084;17.272;2022-07-29T06:42:55;100250.50;;;25.97
62611;BMP280;48683;48.084;17.272;2022-07-29T06:45:20;100247.44;;;25.89
62611;BMP280;48683;48.084;17.272;2022-07-29T06:47:45;100257.28;;;26.07
62611;BMP280;48683;48.084;17.272;2022-07-29T06:50:11;100255.69;;;26.21
62611;BMP280;48683;48.084;17.272;2022-07-29T06:52:38;100244.22;;;26.28
62611;BMP280;48683;48.084;17.272;2022-07-29T06:55:04;100249.53;;;26.42
62611;BMP280;48683;48.084;17.272;2022-07-29T06:57:29;100244.13;;;26.59
62611;BMP280;48683;48.084;17.272;2022-07-29T06:59:58;100251.00;;;26.86
62611;BMP280;48683;48.084;17.272;2022-07-29T07:02:23;100244.19;;;26.76
62611;BMP280;48683;48.084;17.272;2022-07-29T07:04:48;100243.41;;;26.70
62611;BMP280;48683;48.084;17.272;2022-07-29T07:07:14;100244.69;;;26.80
62611;BMP280;48683;48.084;17.272;2022-07-29T07:09:39;100244.16;;;26.65
62611;BMP280;48683;48.084;17.272;2022-07-29T07:12:05;100237.38;;;26.66
62611;BMP280;48683;48.084;17.272;2022-07-29T07:14:31;100246.00;;;26.90
62611;BMP280;48683;48.084;17.272;2022-07-29T07:20:17;100240.59;;;27.40
62611;BMP280;48683;48.084;17.272;2022-07-29T07:22:43;100233.81;;;27.30
62611;BMP280;48683;48.084;17.272;2022-07-29T07:25:09;100239.09;;;27.45
62611;BMP280;48683;48.084;17.272;2022-07-29T07:27:35;100233.34;;;27.59
62611;BMP280;48683;48.084;17.272;2022-07-29T07:30:01;100245.63;;;27.75
62611;BMP280;48683;48.084;17.272;2022-07-29T07:32:26;100233.09;;;27.85
62611;BMP280;48683;48.084;17.272;2022-07-29T07:34:51;100235.34;;;28.09
62611;BMP280;48683;48.084;17.272;2022-07-29T07:37:17;100235.78;;;28.29
62611;BMP280;48683;48.084;17.272;2022-07-29T07:39:44;100230.75;;;28.34
62611;BMP280;48683;48.084;17.272;2022-07-29T07:42:10;100231.63;;;28.64
62611;BMP280;48683;48.084;17.272;2022-07-29T07:44:38;100228.88;;;28.69
62611;BMP280;48683;48.084;17.272;2022-07-29T07:47:03;100229.28;;;28.90
62611;BMP280;48683;48.084;17.272;2022-07-29T07:49:28;100225.41;;;29.04
62611;BMP280;48683;48.084;17.272;2022-07-29T07:51:54;100222.00;;;29.34
62611;BMP280;48683;48.084;17.272;2022-07-29T07:54:19;100225.63;;;29.12
62611;BMP280;48683;48.084;17.272;2022-07-29T07:56:45;100225.34;;;29.15
62611;BMP280;48683;48.084;17.272;2022-07-29T07:59:10;100220.47;;;29.33
62611;BMP280;48683;48.084;17.272;2022-07-29T08:01:36;100218.84;;;29.48
62611;BMP280;48683;48.084;17.272;2022-07-29T08:04:01;100218.94;;;29.37
62611;BMP280;48683;48.084;17.272;2022-07-29T08:06:26;100226.94;;;29.70
62611;BMP280;48683;48.084;17.272;2022-07-29T08:08:52;100215.69;;;29.63
62611;BMP280;48683;48.084;17.272;2022-07-29T08:11:17;100216.22;;;29.32
62611;BMP280;48683;48.084;17.272;2022-07-29T08:13:42;100214.31;;;29.51
62611;BMP280;48683;48.084;17.272;2022-07-29T08:16:08;100214.25;;;29.56
62611;BMP280;48683;48.084;17.272;2022-07-29T08:18:37;100218.16;;;29.96
62611;BMP280;48683;48.084;17.272;2022-07-29T08:21:03;100213.63;;;30.23
62611;BMP280;48683;48.084;17.272;2022-07-29T08:23:29;100208.94;;;30.12
62611;BMP280;48683;48.084;17.272;2022-07-29T08:26:10;100213.03;;;30.30
62611;BMP280;48683;48.084;17.272;2022-07-29T08:28:39;100215.09;;;30.67
62611;BMP280;48683;48.084;17.272;2022-07-29T08:31:05;100202.84;;;30.81
62611;BMP280;48683;48.084;17.272;2022-07-29T08:33:32;100202.88;;;31.13
62611;BMP280;48683;48.084;17.272;2022-07-29T08:35:57;100207.53;;;30.86
62611;BMP280;48683;48.084;17.272;2022-07-29T08:38:22;100204.31;;;30.82
62611;BMP280;48683;48.084;17.272;2022-07-29T08:40:48;100209.56;;;30.48
62611;BMP280;48683;48.084;17.272;2022-07-29T08:43:14;100203.56;;;30.44
62611;BMP280;48683;48.084;17.272;2022-07-29T08:45:48;100210.91;;;30.60
62611;BMP280;48683;48.084;17.272;2022-07-29T08:48:17;100209.56;;;30.86
62611;BMP280;48683;48.084;17.272;2022-07-29T08:50:43;100196.53;;;30.81
62611;BMP280;48683;48.084;17.272;2022-07-29T08:53:12;100201.25;;;30.86
62611;BMP280;48683;48.084;17.272;2022-07-29T08:55:42;100197.75;;;30.85
62611;BMP280;48683;48.084;17.272;2022-07-29T08:58:09;100202.09;;;30.81
62611;BMP280;48683;48.084;17.272;2022-07-29T09:00:36;100206.13;;;30.98
62611;BMP280;48683;48.084;17.272;2022-07-29T09:03:04;100197.88;;;30.93
62611;BMP280;48683;48.084;17.272;2022-07-29T09:05:30;100199.47;;;30.88
62611;BMP280;48683;48.084;17.272;2022-07-29T09:07:56;100205.31;;;31.03
62611;BMP280;48683;48.084;17.272;2022-07-29T09:10:22;100191.66;;;31.05
62611;BMP280;48683;48.084;17.272;2022-07-29T09:12:48;100196.59;;;31.13
62611;BMP280;48683;48.084;17.272;2022-07-29T09:15:14;100200.69;;;31.25
62611;BMP280;48683;48.084;17.272;2022-07-29T09:17:48;100197.66;;;31.09
62611;BMP280;48683;48.084;17.272;2022-07-29T09:20:19;100195.31;;;31.14
62611;BMP280;48683;48.084;17.272;2022-07-29T09:22:45;100198.06;;;31.45
62611;BMP280;48683;48.084;17.272;2022-07-29T09:25:38;100201.16;;;31.42
62611;BMP280;48683;48.084;17.272;2022-07-29T09:28:14;100193.38;;;31.40
62611;BMP280;48683;48.084;17.272;2022-07-29T09:30:51;100182.47;;;31.29
62611;BMP280;48683;48.084;17.272;2022-07-29T09:33:17;100185.84;;;31.22
62611;BMP280;48683;48.084;17.272;2022-07-29T09:35:42;100193.22;;;31.20
62611;BMP280;48683;48.084;17.272;2022-07-29T09:38:12;100184.81;;;31.25
62611;BMP280;48683;48.084;17.272;2022-07-29T09:40:38;100176.72;;;31.40
62611;BMP280;48683;48.084;17.272;2022-07-29T09:43:11;100175.97;;;31.59
62611;BMP280;48683;48.084;17.272;2022-07-29T09:45:36;100178.22;;;31.73
62611;BMP280;48683;48.084;17.272;2022-07-29T09:48:19;100181.22;;;32.01
62611;BMP280;48683;48.084;17.272;2022-07-29T09:50:45;100176.59;;;32.30
62611;BMP280;48683;48.084;17.272;2022-07-29T09:53:12;100165.59;;;31.98
62611;BMP280;48683;48.084;17.272;2022-07-29T09:55:54;100166.59;;;32.01
62611;BMP280;48683;48.084;17.272;2022-07-29T09:58:21;100162.72;;;32.04
62611;BMP280;48683;48.084;17.272;2022-07-29T10:00:48;100161.78;;;32.15
62611;BMP280;48683;48.084;17.272;2022-07-29T10:03:15;100163.94;;;32.09
62611;BMP280;48683;48.084;17.272;2022-07-29T10:05:41;100163.47;;;32.05
62611;BMP280;48683;48.084;17.272;2022-07-29T10:08:07;100156.97;;;32.28
62611;BMP280;48683;48.084;17.272;2022-07-29T10:10:35;100154.66;;;32.53
62611;BMP280;48683;48.084;17.272;2022-07-29T10:15:30;100152.28;;;32.57
62611;BMP280;48683;48.084;17.272;2022-07-29T10:18:03;100162.13;;;32.58
62611;BMP280;48683;48.084;17.272;2022-07-29T10:20:29;100144.91;;;32.26
62611;BMP280;48683;48.084;17.272;2022-07-29T10:22:54;100143.53;;;32.06
62611;BMP280;48683;48.084;17.272;2022-07-29T10:25:21;100138.72;;;31.93
62611;BMP280;48683;48.084;17.272;2022-07-29T10:27:47;100138.72;;;31.93
62611;BMP280;48683;48.084;17.272;2022-07-29T10:30:14;100144.38;;;31.62
62611;BMP280;48683;48.084;17.272;2022-07-29T10:38:41;100145.03;;;32.54
62611;BMP280;48683;48.084;17.272;2022-07-29T10:44:23;100136.63;;;32.80
62611;BMP280;48683;48.084;17.272;2022-07-29T10:46:51;100122.28;;;32.56
62611;BMP280;48683;48.084;17.272;2022-07-29T10:49:21;100136.16;;;32.89
62611;BMP280;48683;48.084;17.272;2022-07-29T10:54:36;100128.25;;;32.93
62611;BMP280;48683;48.084;17.272;2022-07-29T10:59:44;100117.78;;;32.66
62611;BMP280;48683;48.084;17.272;2022-07-29T11:07:23;100105.38;;;32.33
62611;BMP280;48683;48.084;17.272;2022-07-29T11:23:36;100103.28;;;33.01
62611;BMP280;48683;48.084;17.272;2022-07-29T11:28:41;100103.16;;;32.86
62611;BMP280;48683;48.084;17.272;2022-07-29T11:31:12;100103.59;;;32.56
62611;BMP280;48683;48.084;17.272;2022-07-29T11:33:38;100095.41;;;32.37
62611;BMP280;48683;48.084;17.272;2022-07-29T11:36:12;100106.50;;;32.51
62611;BMP280;48683;48.084;17.272;2022-07-29T11:38:38;100101.31;;;32.34
62611;BMP280;48683;48.084;17.272;2022-07-29T11:41:23;100091.78;;;32.42
62611;BMP280;48683;48.084;17.272;2022-07-29T11:43:50;100090.47;;;32.57
62611;BMP280;48683;48.084;17.272;2022-07-29T11:46:43;100104.16;;;32.41
62611;BMP280;48683;48.084;17.272;2022-07-29T11:49:11;100100.00;;;32.48
62611;BMP280;48683;48.084;17.272;2022-07-29T11:51:37;100089.97;;;32.45
62611;BMP280;48683;48.084;17.272;2022-07-29T11:54:04;100085.84;;;32.59
62611;BMP280;48683;48.084;17.272;2022-07-29T11:56:34;100086.44;;;32.44
62611;BMP280;48683;48.084;17.272;2022-07-29T11:59:06;100078.13;;;32.44
62611;BMP280;48683;48.084;17.272;2022-07-29T12:01:32;100086.06;;;32.61
62611;BMP280;48683;48.084;17.272;2022-07-29T12:04:04;100083.63;;;33.20
62611;BMP280;48683;48.084;17.272;2022-07-29T12:06:32;100078.03;;;33.40
62611;BMP280;48683;48.084;17.272;2022-07-29T12:08:57;100071.94;;;33.42
62611;BMP280;48683;48.084;17.272;2022-07-29T12:11:22;100082.75;;;33.53
62611;BMP280;48683;48.084;17.272;2022-07-29T12:13:49;100072.56;;;33.84
62611;BMP280;48683;48.084;17.272;2022-07-29T12:16:15;100066.34;;;34.06
62611;BMP280;48683;48.084;17.272;2022-07-29T12:18:40;100072.34;;;34.25
62611;BMP280;48683;48.084;17.272;2022-07-29T12:21:06;100065.72;;;34.44
62611;BMP280;48683;48.084;17.272;2022-07-29T12:23:33;100053.66;;;34.49
62611;BMP280;48683;48.084;17.272;2022-07-29T12:25:59;100055.19;;;34.72
62611;BMP280;48683;48.084;17.272;2022-07-29T12:28:24;100059.47;;;34.73
62611;BMP280;48683;48.084;17.272;2022-07-29T12:30:50;100053.28;;;34.60
62611;BMP280;48683;48.084;17.272;2022-07-29T12:33:23;100055.09;;;34.27
62611;BMP280;48683;48.084;17.272;2022-07-29T12:35:54;100051.63;;;33.98
62611;BMP280;48683;48.084;17.272;2022-07-29T12:38:20;100045.06;;;33.73
62611;BMP280;48683;48.084;17.272;2022-07-29T12:40:45;100047.13;;;33.80
62611;BMP280;48683;48.084;17.272;2022-07-29T12:43:16;100048.06;;;33.82
62611;BMP280;48683;48.084;17.272;2022-07-29T12:45:47;100037.50;;;33.81
62611;BMP280;48683;48.084;17.272;2022-07-29T12:48:14;100033.97;;;33.52
62611;BMP280;48683;48.084;17.272;2022-07-29T12:51:00;100036.94;;;33.54
62611;BMP280;48683;48.084;17.272;2022-07-29T12:53:26;100036.31;;;33.40
62611;BMP280;48683;48.084;17.272;2022-07-29T12:55:52;100027.47;;;33.50
62611;BMP280;48683;48.084;17.272;2022-07-29T12:58:36;100028.16;;;33.42
62611;BMP280;48683;48.084;17.272;2022-07-29T13:03:53;100022.97;;;33.39
62611;BMP280;48683;48.084;17.272;2022-07-29T13:06:41;100018.53;;;33.44
62611;BMP280;48683;48.084;17.272;2022-07-29T13:09:11;100018.94;;;33.48
62611;BMP280;48683;48.084;17.272;2022-07-29T13:11:38;100018.53;;;33.44
62611;BMP280;48683;48.084;17.272;2022-07-29T13:14:04;100016.22;;;33.63
62611;BMP280;48683;48.084;17.272;2022-07-29T13:16:29;100009.56;;;33.66
62611;BMP280;48683;48.084;17.272;2022-07-29T13:19:11;100019.81;;;33.71
62611;BMP280;48683;48.084;17.272;2022-07-29T13:21:37;100011.16;;;33.90
62611;BMP280;48683;48.084;17.272;2022-07-29T13:24:05;100006.56;;;34.00
62611;BMP280;48683;48.084;17.272;2022-07-29T13:26:31;100008.06;;;34.08
62611;BMP280;48683;48.084;17.272;2022-07-29T13:28:56;100001.91;;;33.95
62611;BMP280;48683;48.084;17.272;2022-07-29T13:31:22;99991.97;;;34.29
62611;BMP280;48683;48.084;17.272;2022-07-29T13:33:47;99996.69;;;34.65
62611;BMP280;48683;48.084;17.272;2022-07-29T13:36:13;99988.13;;;34.78
62611;BMP280;48683;48.084;17.272;2022-07-29T13:38:38;99986.44;;;34.90
62611;BMP280;48683;48.084;17.272;2022-07-29T13:41:04;99982.31;;;34.99
62611;BMP280;48683;48.084;17.272;2022-07-29T13:43:29;99965.78;;;35.16
62611;BMP280;48683;48.084;17.272;2022-07-29T13:45:54;99976.53;;;35.27
62611;BMP280;48683;48.084;17.272;2022-07-29T13:48:20;99976.53;;;35.27
62611;BMP280;48683;48.084;17.272;2022-07-29T13:50:45;99969.22;;;35.47
62611;BMP280;48683;48.084;17.272;2022-07-29T13:53:11;99969.22;;;35.47
62611;BMP280;48683;48.084;17.272;2022-07-29T13:55:37;99969.22;;;35.47
62611;BMP280;48683;48.084;17.272;2022-07-29T13:58:02;99961.81;;;35.34
62611;BMP280;48683;48.084;17.272;2022-07-29T14:00:28;99961.66;;;35.32
62611;BMP280;48683;48.084;17.272;2022-07-29T14:02:54;99957.19;;;35.21
62611;BMP280;48683;48.084;17.272;2022-07-29T14:05:19;99951.25;;;35.10
62611;BMP280;48683;48.084;17.272;2022-07-29T14:07:44;99954.28;;;34.97
62611;BMP280;48683;48.084;17.272;2022-07-29T14:10:10;99955.03;;;34.37
62611;BMP280;48683;48.084;17.272;2022-07-29T14:12:35;99960.16;;;34.02
62611;BMP280;48683;48.084;17.272;2022-07-29T14:15:00;99963.06;;;33.81
62611;BMP280;48683;48.084;17.272;2022-07-29T14:17:26;99962.50;;;33.75
62611;BMP280;48683;48.084;17.272;2022-07-29T14:19:51;99965.00;;;34.02
62611;BMP280;48683;48.084;17.272;2022-07-29T14:22:16;99957.38;;;34.10
62611;BMP280;48683;48.084;17.272;2022-07-29T14:24:44;99959.84;;;34.21
62611;BMP280;48683;48.084;17.272;2022-07-29T14:27:10;99959.03;;;34.05
62611;BMP280;48683;48.084;17.272;2022-07-29T14:29:35;99945.72;;;34.11
62611;BMP280;48683;48.084;17.272;2022-07-29T14:32:01;99941.06;;;34.06
62611;BMP280;48683;48.084;17.272;2022-07-29T14:34:26;99946.81;;;34.01
62611;BMP280;48683;48.084;17.272;2022-07-29T14:36:52;99956.25;;;33.98
62611;BMP280;48683;48.084;17.272;2022-07-29T14:39:21;99959.59;;;33.89
62611;BMP280;48683;48.084;17.272;2022-07-29T14:41:48;99966.41;;;33.72
62611;BMP280;48683;48.084;17.272;2022-07-29T14:44:13;99963.63;;;33.36
62611;BMP280;48683;48.084;17.272;2022-07-29T14:46:39;99965.41;;;32.70
62611;BMP280;48683;48.084;17.272;2022-07-29T14:49:04;99983.84;;;31.58
62611;BMP280;48683;48.084;17.272;2022-07-29T14:51:30;99995.56;;;31.51